Terminal Aerodrome Forecast
Issued by NWS Sterling, VA

Home | Current Version | Previous Version | Text Only | Print | Product List | Glossary On
Versions: 1 2 3 4 5 6 7 8 9 10 11 12 13
000
FTUS41 KLWX 261137
TAFCHO
TAF
KCHO 261137Z 2612/2712 01005KT 3SM -RA SCT015 OVC050
     FM261300 01005KT P6SM SCT015 OVC050
     FM261600 02005KT P6SM OVC050
     FM270000 VRB03KT P6SM OVC070=

USA.gov is the U.S. government's official web portal to all federal, state and local government web resources and services.